Time;durP1;ratioP1;P1;durP2;ratioP2;P2;SDS_P1;SDS_P2;PMS_P1;PMS_P2;Temp;Humidity;BMP_temperature;BMP_pressure;BME280_temperature;BME280_humidity;BME280_pressure;Samples;Min_cycle;Max_cycle;Signal;HPM_P1;HPM_P2
2022/05/22 00:00:24;;;;;;;14.48;10.98;;;19.40;70.60;;;;;;5054595;28;20385;-15
2022/05/22 00:02:51;;;;;;;13.90;11.30;;;19.30;70.70;;;;;;5054928;28;20025;-15
2022/05/22 00:05:20;;;;;;;15.25;11.73;;;19.30;70.80;;;;;;5054319;28;20119;-14
2022/05/22 00:07:46;;;;;;;13.13;10.50;;;19.20;71.30;;;;;;5054202;28;20029;-17
2022/05/22 00:10:13;;;;;;;13.25;11.25;;;19.20;71.00;;;;;;5036457;28;20473;-15
2022/05/22 00:12:40;;;;;;;13.27;11.73;;;19.20;71.10;;;;;;5054953;28;20048;-14
2022/05/22 00:15:08;;;;;;;13.15;11.65;;;19.10;71.10;;;;;;5054210;28;20061;-15
2022/05/22 00:17:34;;;;;;;15.50;11.80;;;19.10;71.40;;;;;;5054399;28;20033;-14
2022/05/22 00:20:00;;;;;;;13.57;12.02;;;19.00;71.80;;;;;;5054196;28;20025;-14
2022/05/22 00:22:25;;;;;;;15.02;12.10;;;18.90;71.80;;;;;;5053793;28;20032;-16
2022/05/22 00:24:52;;;;;;;16.67;12.23;;;18.90;71.70;;;;;;5054511;28;20021;-15
2022/05/22 00:27:19;;;;;;;14.82;11.85;;;18.80;71.90;;;;;;5054302;28;20025;-14
2022/05/22 00:29:45;;;;;;;14.50;10.68;;;18.80;72.20;;;;;;5054013;28;20104;-14
2022/05/22 00:32:11;;;;;;;14.15;11.23;;;18.80;72.30;;;;;;5054004;28;20103;-14
2022/05/22 00:34:37;;;;;;;17.80;13.35;;;18.80;72.50;;;;;;5053680;28;20029;-14
2022/05/22 00:37:06;;;;;;;20.45;14.00;;;18.80;72.70;;;;;;5053949;28;20033;-16
2022/05/22 00:39:32;;;;;;;21.27;17.92;;;18.80;73.00;;;;;;5054057;28;20494;-14
2022/05/22 00:41:59;;;;;;;20.67;16.15;;;18.70;72.90;;;;;;5053730;28;20078;-16
2022/05/22 00:44:25;;;;;;;17.58;14.27;;;18.70;73.20;;;;;;5053216;28;20048;-14
2022/05/22 00:46:52;;;;;;;17.88;13.95;;;18.60;73.60;;;;;;5053618;28;20496;-14
2022/05/22 00:49:27;;;;;;;14.93;12.80;;;18.50;73.70;;;;;;5053531;28;20071;-14
2022/05/22 00:52:01;;;;;;;14.20;11.63;;;18.60;73.40;;;;;;5053802;28;20052;-14
2022/05/22 00:54:40;;;;;;;13.20;10.25;;;18.60;73.40;;;;;;5053426;28;20099;-15
2022/05/22 00:57:11;;;;;;;14.68;12.40;;;18.60;73.50;;;;;;5053744;28;20056;-15
2022/05/22 00:59:41;;;;;;;14.05;11.88;;;18.50;73.50;;;;;;5052950;28;20032;-16
2022/05/22 01:02:08;;;;;;;18.02;13.77;;;18.50;73.70;;;;;;5053602;28;20477;-15
2022/05/22 01:04:36;;;;;;;16.15;13.02;;;18.50;73.50;;;;;;5053209;28;20079;-14
2022/05/22 01:07:07;;;;;;;15.75;11.90;;;18.50;73.60;;;;;;5053778;28;20033;-15
2022/05/22 01:09:34;;;;;;;17.15;13.43;;;18.50;73.70;;;;;;5053628;28;20385;-12
2022/05/22 01:12:05;;;;;;;14.20;12.57;;;18.50;73.80;;;;;;5053527;28;20087;-16
2022/05/22 01:14:34;;;;;;;18.45;14.38;;;18.40;73.80;;;;;;5053103;28;20017;-16
2022/05/22 01:17:08;;;;;;;15.90;12.65;;;18.40;73.90;;;;;;5053528;28;20029;-16
2022/05/22 01:19:35;;;;;;;15.82;13.98;;;18.40;73.90;;;;;;5053185;28;20411;-13
2022/05/22 01:22:05;;;;;;;21.02;14.80;;;18.40;74.60;;;;;;5052982;28;20392;-14
2022/05/22 01:24:31;;;;;;;17.77;15.02;;;18.30;74.60;;;;;;5053153;28;20021;-14
2022/05/22 01:27:01;;;;;;;16.58;12.75;;;18.30;74.90;;;;;;5053008;28;20387;-14
2022/05/22 01:29:27;;;;;;;16.23;12.55;;;18.20;74.70;;;;;;5053002;28;20163;-16
2022/05/22 01:31:53;;;;;;;20.52;15.00;;;18.20;74.50;;;;;;5052987;28;20025;-16
2022/05/22 01:34:18;;;;;;;19.20;16.40;;;18.20;74.90;;;;;;5052707;28;20032;-16
2022/05/22 01:36:44;;;;;;;18.45;16.23;;;18.20;75.30;;;;;;5034924;28;20095;-14
2022/05/22 01:39:10;;;;;;;20.30;16.02;;;18.10;75.20;;;;;;5053105;28;20485;-15
2022/05/22 01:41:37;;;;;;;19.77;16.17;;;18.10;75.30;;;;;;5052826;28;20074;-16
2022/05/22 01:44:03;;;;;;;16.95;13.85;;;18.00;75.50;;;;;;5034909;28;20501;-14
2022/05/22 01:46:29;;;;;;;18.48;15.15;;;18.00;75.40;;;;;;5034812;28;20029;-14
2022/05/22 01:48:56;;;;;;;18.75;14.88;;;18.00;75.40;;;;;;5052826;28;20451;-14
2022/05/22 01:51:22;;;;;;;18.20;14.40;;;18.00;75.50;;;;;;5034935;28;20033;-15
2022/05/22 01:53:48;;;;;;;18.98;13.50;;;17.90;75.60;;;;;;5052719;28;20043;-14
2022/05/22 01:56:14;;;;;;;20.23;16.00;;;17.90;75.60;;;;;;5052581;28;20033;-14
2022/05/22 01:58:40;;;;;;;19.88;15.85;;;17.90;75.90;;;;;;5035307;28;20017;-16
2022/05/22 02:01:08;;;;;;;16.85;13.73;;;17.90;75.90;;;;;;5053196;28;20033;-14
2022/05/22 02:03:35;;;;;;;16.50;13.25;;;17.90;75.90;;;;;;5053220;28;20039;-14
2022/05/22 02:06:01;;;;;;;21.73;16.85;;;17.80;75.70;;;;;;5052614;28;20121;-16
2022/05/22 02:08:27;;;;;;;19.98;16.08;;;17.90;76.10;;;;;;5052433;28;20116;-16
2022/05/22 02:11:05;;;;;;;19.63;14.57;;;17.80;76.20;;;;;;5053614;28;20029;-14
2022/05/22 02:13:37;;;;;;;20.38;15.70;;;17.80;76.10;;;;;;5056720;28;20021;-13
2022/05/22 02:16:03;;;;;;;16.03;12.40;;;17.80;76.00;;;;;;5056474;28;20029;-12
2022/05/22 02:18:30;;;;;;;17.98;14.00;;;17.70;75.90;;;;;;5056302;28;20025;-12
2022/05/22 02:20:56;;;;;;;17.08;12.20;;;17.70;75.90;;;;;;5056386;28;20021;-14
2022/05/22 02:23:22;;;;;;;17.17;13.02;;;17.70;76.00;;;;;;5056392;28;20024;-13
2022/05/22 02:25:53;;;;;;;18.10;14.55;;;17.70;75.90;;;;;;5056200;28;20025;-14
2022/05/22 02:28:21;;;;;;;20.15;15.60;;;17.70;76.10;;;;;;5056129;28;20550;-15
2022/05/22 02:30:53;;;;;;;19.27;14.57;;;17.60;76.00;;;;;;5056640;28;20033;-15
2022/05/22 02:33:19;;;;;;;17.23;14.27;;;17.60;76.10;;;;;;5056430;28;20033;-14
2022/05/22 02:35:45;;;;;;;19.60;14.82;;;17.60;76.10;;;;;;5056321;28;20071;-15
2022/05/22 02:38:12;;;;;;;20.83;15.90;;;17.60;76.10;;;;;;5056299;28;20049;-14
2022/05/22 02:40:39;;;;;;;21.80;17.90;;;17.50;76.20;;;;;;5056137;28;20021;-16
2022/05/22 02:43:07;;;;;;;22.35;16.70;;;17.50;76.90;;;;;;5056057;28;20485;-16
2022/05/22 02:45:37;;;;;;;22.05;16.85;;;17.40;77.00;;;;;;5055953;28;20072;-15
2022/05/22 02:48:04;;;;;;;29.30;21.95;;;17.40;76.90;;;;;;5056217;28;20491;-13
2022/05/22 02:50:32;;;;;;;21.98;16.30;;;17.40;77.20;;;;;;5055610;28;20506;-15
2022/05/22 02:52:58;;;;;;;18.00;14.77;;;17.40;77.20;;;;;;5055930;28;20013;-14
2022/05/22 02:55:25;;;;;;;22.33;16.70;;;17.30;77.10;;;;;;5055579;28;20029;-14
2022/05/22 02:57:51;;;;;;;21.50;17.02;;;17.20;77.10;;;;;;5055672;28;20118;-14
2022/05/22 03:00:22;;;;;;;24.73;20.65;;;17.20;77.30;;;;;;5055427;28;20066;-15
2022/05/22 03:02:48;;;;;;;19.05;13.88;;;17.20;77.50;;;;;;5055696;28;20121;-15
2022/05/22 03:05:14;;;;;;;20.80;16.63;;;17.20;77.60;;;;;;5055569;28;20514;-16
2022/05/22 03:07:40;;;;;;;17.98;15.05;;;17.10;77.80;;;;;;5055393;28;20393;-16
2022/05/22 03:10:10;;;;;;;19.55;14.18;;;17.20;77.90;;;;;;5055591;28;20528;-16
2022/05/22 03:12:36;;;;;;;17.77;13.10;;;17.20;77.60;;;;;;5055284;28;20024;-16
2022/05/22 03:15:05;;;;;;;15.40;12.48;;;17.20;77.40;;;;;;5055395;28;20059;-14
2022/05/22 03:17:31;;;;;;;15.95;13.60;;;17.20;77.30;;;;;;5055564;28;20036;-14
2022/05/22 03:19:57;;;;;;;19.85;15.50;;;17.20;77.30;;;;;;5055222;28;20562;-15
2022/05/22 03:22:24;;;;;;;17.98;14.38;;;17.20;77.30;;;;;;5054005;28;20033;-16
2022/05/22 03:24:51;;;;;;;18.63;15.73;;;17.20;77.30;;;;;;5055211;28;20021;-14
2022/05/22 03:27:20;;;;;;;28.20;21.75;;;17.10;77.50;;;;;;5055224;28;20025;-16
2022/05/22 03:29:48;;;;;;;20.08;16.20;;;17.10;77.50;;;;;;5055122;28;20067;-14
2022/05/22 03:32:15;;;;;;;22.10;16.80;;;17.10;77.50;;;;;;5054830;28;20029;-14
2022/05/22 03:34:41;;;;;;;20.50;17.08;;;17.00;77.70;;;;;;5055310;28;20052;-16
2022/05/22 03:37:07;;;;;;;20.13;15.95;;;17.00;78.00;;;;;;5054727;28;20426;-14
2022/05/22 03:39:33;;;;;;;17.52;13.93;;;17.00;78.30;;;;;;5054906;28;20089;-16
2022/05/22 03:41:59;;;;;;;17.63;13.35;;;17.00;78.00;;;;;;5055143;28;20086;-16
2022/05/22 03:44:26;;;;;;;19.05;14.93;;;17.00;77.70;;;;;;5054296;28;20505;-15
2022/05/22 03:46:52;;;;;;;20.08;15.68;;;17.10;77.90;;;;;;5055168;28;20033;-14
2022/05/22 03:49:18;;;;;;;19.13;14.15;;;17.00;78.20;;;;;;5055090;28;20024;-12
2022/05/22 03:51:44;;;;;;;19.90;14.88;;;17.10;78.10;;;;;;5055087;28;20186;-12
2022/05/22 03:54:11;;;;;;;19.25;13.10;;;17.10;78.00;;;;;;5054945;28;20530;-13
2022/05/22 03:56:39;;;;;;;21.80;17.63;;;17.10;77.70;;;;;;5054239;28;20040;-15
2022/05/22 03:59:05;;;;;;;17.55;13.95;;;17.10;78.10;;;;;;5054853;28;20087;-15
2022/05/22 04:01:31;;;;;;;23.52;18.60;;;17.10;78.00;;;;;;5054903;28;20451;-14
2022/05/22 04:03:57;;;;;;;19.60;15.27;;;17.20;77.90;;;;;;5054678;28;20029;-14
2022/05/22 04:06:23;;;;;;;18.38;14.18;;;17.20;77.80;;;;;;5054101;28;20129;-15
2022/05/22 04:08:49;;;;;;;19.05;14.57;;;17.20;77.70;;;;;;5054630;28;20029;-16
2022/05/22 04:11:17;;;;;;;22.92;17.48;;;17.20;77.80;;;;;;5054634;28;20033;-14
2022/05/22 04:13:44;;;;;;;21.65;17.38;;;17.30;78.00;;;;;;5054653;28;20023;-16
2022/05/22 04:16:10;;;;;;;19.27;14.93;;;17.30;77.60;;;;;;5054424;28;20090;-15
2022/05/22 04:18:36;;;;;;;18.85;14.90;;;17.40;77.60;;;;;;5054034;28;20025;-15
2022/05/22 04:21:03;;;;;;;17.20;13.27;;;17.40;77.60;;;;;;5054335;28;20055;-14
2022/05/22 04:26:14;;;;;;;18.13;13.93;;;17.50;77.40;;;;;;5054100;28;20435;-14
2022/05/22 04:28:40;;;;;;;15.60;13.00;;;17.50;77.40;;;;;;5053948;28;20021;-13
2022/05/22 04:31:06;;;;;;;19.65;14.88;;;17.60;77.20;;;;;;5053959;28;20028;-12
2022/05/22 04:33:33;;;;;;;20.17;16.20;;;17.60;77.20;;;;;;5054085;28;20029;-12
2022/05/22 04:36:00;;;;;;;23.45;18.08;;;17.70;77.00;;;;;;5054068;28;20120;-14
2022/05/22 04:38:26;;;;;;;19.48;15.57;;;17.80;77.10;;;;;;5053683;28;20025;-13
2022/05/22 04:41:00;;;;;;;21.48;17.20;;;17.90;77.00;;;;;;5053790;28;20052;-14
2022/05/22 04:43:29;;;;;;;19.27;15.68;;;17.90;76.90;;;;;;5053931;28;20396;-14
2022/05/22 04:45:55;;;;;;;23.08;18.88;;;18.10;76.80;;;;;;5053629;28;20124;-13
2022/05/22 04:48:23;;;;;;;18.55;14.95;;;18.10;76.60;;;;;;5053505;28;20389;-14
2022/05/22 04:50:51;;;;;;;19.75;16.05;;;18.20;76.70;;;;;;5053567;28;20021;-14
2022/05/22 04:53:20;;;;;;;20.98;16.02;;;18.40;76.50;;;;;;5053550;28;20033;-14
2022/05/22 04:55:46;;;;;;;20.05;14.73;;;18.40;76.40;;;;;;5053767;28;20119;-13
2022/05/22 04:58:13;;;;;;;19.55;13.60;;;18.50;76.40;;;;;;5053752;28;20025;-13
2022/05/22 05:00:39;;;;;;;19.42;13.07;;;18.60;76.40;;;;;;5053918;28;20025;-13
2022/05/22 05:03:06;;;;;;;16.80;14.35;;;18.80;76.20;;;;;;5053835;28;20108;-14
2022/05/22 05:05:32;;;;;;;24.50;19.67;;;18.90;75.90;;;;;;5053713;28;20564;-13
2022/05/22 05:07:57;;;;;;;21.88;16.50;;;19.00;76.90;;;;;;5053439;28;20108;-14
2022/05/22 05:10:24;;;;;;;17.10;15.30;;;19.20;76.90;;;;;;5053295;28;20427;-14
2022/05/22 05:12:51;;;;;;;22.40;17.33;;;19.30;76.70;;;;;;5053227;28;20025;-14
2022/05/22 05:15:19;;;;;;;28.23;21.55;;;19.40;76.20;;;;;;5053521;28;20025;-14
2022/05/22 05:17:46;;;;;;;24.77;19.42;;;19.60;76.00;;;;;;5053473;28;20033;-14
2022/05/22 05:20:16;;;;;;;17.20;15.02;;;19.70;75.50;;;;;;5053262;28;20029;-15
2022/05/22 05:22:43;;;;;;;23.15;18.40;;;19.90;75.50;;;;;;5052981;28;20039;-14
2022/05/22 05:25:11;;;;;;;25.00;19.52;;;20.00;74.90;;;;;;5053377;28;20105;-15
2022/05/22 05:27:37;;;;;;;26.73;21.25;;;20.10;74.70;;;;;;5053364;28;20182;-14
2022/05/22 05:30:04;;;;;;;23.67;19.20;;;20.20;74.20;;;;;;5052955;28;20497;-14
2022/05/22 05:32:30;;;;;;;27.98;21.05;;;20.40;73.90;;;;;;5053018;28;20032;-15
2022/05/22 05:35:02;;;;;;;22.50;19.17;;;20.40;73.60;;;;;;5053572;28;20029;-13
2022/05/22 05:37:28;;;;;;;21.23;16.17;;;20.50;73.30;;;;;;5053110;28;20037;-13
2022/05/22 05:39:54;;;;;;;17.85;14.68;;;20.70;73.20;;;;;;5052980;28;20029;-12
2022/05/22 05:42:21;;;;;;;22.55;18.25;;;20.80;72.80;;;;;;5052767;28;20022;-13
2022/05/22 05:44:48;;;;;;;17.38;14.60;;;20.90;72.50;;;;;;5052640;28;20061;-13
2022/05/22 05:47:14;;;;;;;16.33;13.68;;;21.00;72.10;;;;;;5056438;28;20074;-14
2022/05/22 05:49:41;;;;;;;18.08;14.85;;;21.10;71.80;;;;;;5057419;28;20028;-13
2022/05/22 05:52:07;;;;;;;23.33;16.70;;;21.20;71.70;;;;;;5057104;28;20047;-14
2022/05/22 05:54:34;;;;;;;22.20;16.73;;;21.40;71.40;;;;;;5056685;28;20033;-13
2022/05/22 05:57:00;;;;;;;24.13;20.80;;;21.40;71.20;;;;;;5056995;28;20029;-13
2022/05/22 05:59:28;;;;;;;20.08;15.57;;;21.50;71.70;;;;;;5056835;28;20033;-13
2022/05/22 06:01:54;;;;;;;23.35;18.80;;;21.60;71.50;;;;;;5056778;28;20059;-14
2022/05/22 06:04:20;;;;;;;23.23;15.98;;;21.80;71.20;;;;;;5056538;28;20032;-13
2022/05/22 06:06:47;;;;;;;20.77;16.75;;;21.90;70.80;;;;;;5056611;28;20029;-13
2022/05/22 06:09:13;;;;;;;25.58;18.92;;;22.10;70.50;;;;;;5056646;28;20143;-14
2022/05/22 06:11:39;;;;;;;26.75;19.90;;;22.30;70.00;;;;;;5056663;28;20525;-13
2022/05/22 06:14:05;;;;;;;25.42;18.70;;;22.40;69.90;;;;;;5056579;28;20033;-15
2022/05/22 06:16:31;;;;;;;25.67;16.35;;;22.50;69.90;;;;;;5056224;28;20033;-14
2022/05/22 06:18:57;;;;;;;22.25;16.33;;;22.60;69.50;;;;;;5057049;28;20079;-13
2022/05/22 06:21:23;;;;;;;18.67;14.50;;;22.70;69.00;;;;;;5056529;28;20017;-14
2022/05/22 06:23:50;;;;;;;15.05;12.70;;;22.90;68.90;;;;;;5056360;28;20096;-12
2022/05/22 06:26:17;;;;;;;15.70;13.23;;;23.00;68.70;;;;;;5056227;28;20009;-12
2022/05/22 06:28:43;;;;;;;18.00;15.07;;;23.10;68.50;;;;;;5056597;28;20104;-14
2022/05/22 06:31:11;;;;;;;16.88;12.52;;;23.20;68.10;;;;;;5056772;28;20040;-16
2022/05/22 06:33:38;;;;;;;16.70;13.45;;;23.20;68.00;;;;;;5056415;28;20032;-14
2022/05/22 06:36:12;;;;;;;20.10;16.05;;;23.30;68.10;;;;;;5056264;28;20559;-14
2022/05/22 06:41:24;;;;;;;21.63;17.40;;;23.60;67.20;;;;;;5056584;28;20060;-13
2022/05/22 06:43:51;;;;;;;23.17;18.65;;;23.70;67.00;;;;;;5056029;28;20021;-14
2022/05/22 06:46:24;;;;;;;18.63;16.63;;;23.80;66.50;;;;;;5055748;28;20036;-14
2022/05/22 06:48:50;;;;;;;14.77;11.40;;;23.80;66.60;;;;;;5056477;28;20025;-13
2022/05/22 06:51:17;;;;;;;14.57;10.88;;;23.90;66.50;;;;;;5055993;28;20025;-14
2022/05/22 06:53:43;;;;;;;15.90;11.63;;;24.00;66.30;;;;;;5055845;28;20025;-15
2022/05/22 06:56:09;;;;;;;22.15;14.77;;;24.20;65.80;;;;;;5055621;28;20033;-13
2022/05/22 06:58:37;;;;;;;16.15;12.23;;;24.40;65.30;;;;;;5054224;28;20040;-13
2022/05/22 07:01:03;;;;;;;14.82;11.93;;;24.50;64.60;;;;;;5055934;28;20029;-13
2022/05/22 07:03:29;;;;;;;19.50;13.77;;;24.60;64.10;;;;;;5055793;28;20060;-13
2022/05/22 07:05:55;;;;;;;20.42;15.55;;;24.80;63.90;;;;;;5055831;28;20045;-14
2022/05/22 07:08:21;;;;;;;14.38;12.88;;;25.00;63.50;;;;;;5055485;28;20021;-13
2022/05/22 07:13:31;;;;;;;21.88;14.55;;;25.50;61.90;;;;;;5055816;28;20103;-13
2022/05/22 07:16:02;;;;;;;17.73;11.20;;;25.70;60.70;;;;;;5055436;28;20438;-14
2022/05/22 07:18:28;;;;;;;17.42;12.65;;;25.90;60.80;;;;;;5055263;28;20017;-13
2022/05/22 07:20:54;;;;;;;13.50;10.30;;;26.30;60.40;;;;;;5037498;28;20035;-13
2022/05/22 07:23:20;;;;;;;16.38;12.93;;;26.60;59.10;;;;;;5055511;28;20028;-14
2022/05/22 07:25:46;;;;;;;13.52;9.27;;;26.90;58.10;;;;;;5055205;28;20108;-13
2022/05/22 07:28:12;;;;;;;13.15;10.07;;;27.20;57.50;;;;;;5055159;28;20546;-13
2022/05/22 07:30:38;;;;;;;14.27;8.93;;;27.40;53.60;;;;;;5055609;28;20029;-13
2022/05/22 07:33:04;;;;;;;12.20;8.57;;;27.70;54.00;;;;;;5055324;28;20091;-13
2022/05/22 07:35:30;;;;;;;18.05;10.10;;;27.80;53.40;;;;;;5054940;28;20056;-13
2022/05/22 07:37:56;;;;;;;15.48;9.88;;;28.00;52.60;;;;;;5055186;28;20374;-13
2022/05/22 07:40:22;;;;;;;14.80;10.07;;;28.30;53.00;;;;;;5055033;28;20028;-13
2022/05/22 07:42:48;;;;;;;14.63;9.10;;;28.50;51.00;;;;;;5054861;28;20378;-12
2022/05/22 07:45:15;;;;;;;9.80;7.55;;;28.70;49.40;;;;;;5033469;28;20058;-13
2022/05/22 07:47:42;;;;;;;14.45;8.90;;;28.90;50.70;;;;;;5034939;28;20022;-13
2022/05/22 07:50:17;;;;;;;11.00;8.52;;;29.00;49.30;;;;;;5034983;28;20033;-13
2022/05/22 07:52:45;;;;;;;9.65;6.82;;;28.90;49.10;;;;;;5034808;28;20026;-13
2022/05/22 07:55:18;;;;;;;9.85;6.53;;;29.00;49.70;;;;;;5034790;28;20033;-13
2022/05/22 07:57:49;;;;;;;9.82;7.70;;;29.20;49.90;;;;;;5035126;28;20116;-13
2022/05/22 08:00:18;;;;;;;12.02;8.40;;;29.30;49.70;;;;;;5034850;28;20021;-12
2022/05/22 08:02:45;;;;;;;9.95;7.97;;;29.40;48.70;;;;;;5034955;28;20029;-11
2022/05/22 08:05:12;;;;;;;13.32;8.85;;;29.40;48.80;;;;;;5034610;28;20030;-13
2022/05/22 08:07:38;;;;;;;9.27;7.50;;;29.40;47.60;;;;;;5034727;28;20034;-13
2022/05/22 08:10:06;;;;;;;11.85;7.70;;;29.40;48.80;;;;;;5032885;28;20032;-13
2022/05/22 08:12:37;;;;;;;13.55;7.93;;;29.50;48.10;;;;;;5034289;28;20021;-13
2022/05/22 08:15:04;;;;;;;13.90;8.52;;;29.80;47.10;;;;;;5034385;28;20068;-14
2022/05/22 08:17:35;;;;;;;14.20;8.07;;;29.90;47.90;;;;;;5034269;28;20032;-14
2022/05/22 08:20:12;;;;;;;11.63;6.97;;;30.10;48.10;;;;;;5034624;28;20025;-13
2022/05/22 08:22:48;;;;;;;9.88;6.63;;;30.10;47.70;;;;;;5033741;28;20036;-13
2022/05/22 08:25:17;;;;;;;9.40;7.30;;;30.30;47.70;;;;;;5034552;28;20038;-13
2022/05/22 08:27:44;;;;;;;8.95;6.28;;;30.40;47.30;;;;;;5034765;28;20083;-13
2022/05/22 08:30:14;;;;;;;13.40;8.20;;;30.40;46.70;;;;;;5034193;28;20029;-13
2022/05/22 08:32:42;;;;;;;13.13;7.80;;;30.30;46.40;;;;;;5034063;28;20474;-13
2022/05/22 08:35:12;;;;;;;13.02;7.25;;;30.20;46.50;;;;;;5034311;28;20033;-13
2022/05/22 08:37:38;;;;;;;11.02;7.25;;;30.30;47.10;;;;;;5033770;28;20044;-13
2022/05/22 08:40:05;;;;;;;11.27;7.05;;;30.40;47.10;;;;;;5033927;28;20034;-14
2022/05/22 08:43:03;;;;;;;11.35;7.38;;;30.40;47.00;;;;;;5034050;28;20083;-13
2022/05/22 08:45:42;;;;;;;12.27;8.52;;;30.60;45.30;;;;;;5048349;28;20075;-13
2022/05/22 08:48:20;;;;;;;12.70;8.73;;;30.70;46.00;;;;;;5053741;28;20480;-13
2022/05/22 08:50:49;;;;;;;13.38;8.15;;;30.70;45.60;;;;;;5053576;28;20044;-13
2022/05/22 08:53:26;;;;;;;10.35;6.47;;;30.70;46.50;;;;;;5053597;28;20029;-13
2022/05/22 08:58:57;;;;;;;12.10;8.43;;;31.30;46.10;;;;;;5054102;28;20071;-13
2022/05/22 09:01:38;;;;;;;10.45;7.93;;;31.60;44.80;;;;;;5053520;28;20396;-12
2022/05/22 09:04:13;;;;;;;11.18;7.97;;;31.80;45.50;;;;;;5053778;28;20028;-14
2022/05/22 09:06:48;;;;;;;14.73;8.13;;;31.90;44.90;;;;;;5053276;28;20040;-14
2022/05/22 09:09:14;;;;;;;13.70;8.73;;;32.00;44.70;;;;;;5053304;28;20028;-13
2022/05/22 09:12:08;;;;;;;11.00;8.35;;;32.30;44.70;;;;;;5053283;28;20033;-13
2022/05/22 09:14:42;;;;;;;11.48;8.95;;;32.40;43.90;;;;;;5053346;28;20048;-14
2022/05/22 09:17:18;;;;;;;13.75;7.97;;;32.50;44.20;;;;;;5054000;28;20060;-14
2022/05/22 09:19:50;;;;;;;10.27;7.63;;;32.50;44.10;;;;;;5053116;28;20029;-14
2022/05/22 09:22:44;;;;;;;11.27;8.18;;;32.50;43.30;;;;;;5052382;28;20036;-14
2022/05/22 09:25:26;;;;;;;12.55;7.50;;;32.50;42.40;;;;;;5053156;28;20037;-14
2022/05/22 09:28:22;;;;;;;10.37;7.23;;;32.40;42.50;;;;;;5053392;28;20029;-13
2022/05/22 09:31:16;;;;;;;9.85;6.70;;;32.60;41.70;;;;;;5053436;28;20087;-13
2022/05/22 09:33:57;;;;;;;7.75;6.55;;;32.90;40.60;;;;;;5053356;28;20053;-13
2022/05/22 09:36:54;;;;;;;10.60;6.60;;;33.10;40.70;;;;;;5052854;28;20037;-14
2022/05/22 09:39:42;;;;;;;8.80;6.50;;;33.30;41.80;;;;;;5049386;28;20025;-14
2022/05/22 09:42:45;;;;;;;9.93;6.97;;;33.20;41.00;;;;;;5052944;28;20509;-13
2022/05/22 09:45:48;;;;;;;12.80;7.75;;;33.20;40.90;;;;;;5052814;28;20500;-13
2022/05/22 09:48:50;;;;;;;12.68;7.70;;;33.10;40.90;;;;;;5034839;28;20029;-14
2022/05/22 09:51:16;;;;;;;11.43;6.80;;;33.20;40.80;;;;;;5052943;28;20057;-12
2022/05/22 09:53:47;;;;;;;8.77;6.55;;;33.40;41.70;;;;;;5053035;28;20060;-13
2022/05/22 09:56:36;;;;;;;12.65;7.47;;;33.70;41.00;;;;;;5052964;28;20078;-13
2022/05/22 09:59:13;;;;;;;10.43;6.60;;;34.00;40.30;;;;;;5042972;28;20036;-13
2022/05/22 10:01:46;;;;;;;8.60;6.53;;;34.30;40.20;;;;;;5053050;28;20021;-14
2022/05/22 10:04:25;;;;;;;7.75;6.10;;;34.60;40.00;;;;;;5053169;28;20029;-14
2022/05/22 10:07:06;;;;;;;8.77;6.80;;;34.90;39.10;;;;;;5052627;28;20400;-13
2022/05/22 10:09:38;;;;;;;10.23;6.80;;;35.10;39.40;;;;;;5052872;28;20035;-13
2022/05/22 10:12:51;;;;;;;10.17;7.03;;;35.10;39.10;;;;;;5034956;28;20440;-13
2022/05/22 10:15:40;;;;;;;9.15;6.20;;;35.20;37.90;;;;;;5052694;28;20028;-14
2022/05/22 10:18:13;;;;;;;9.93;6.57;;;35.40;39.30;;;;;;5052852;28;20024;-14
2022/05/22 10:20:52;;;;;;;8.80;6.70;;;35.80;38.00;;;;;;5053341;28;20025;-14
2022/05/22 10:23:36;;;;;;;10.13;7.72;;;36.00;37.40;;;;;;5052505;28;20028;-13
2022/05/22 10:26:13;;;;;;;12.60;7.75;;;36.20;37.40;;;;;;5052499;28;20029;-14
2022/05/22 10:29:06;;;;;;;10.48;7.00;;;36.50;37.00;;;;;;5052548;28;20024;-14
2022/05/22 10:31:32;;;;;;;8.63;6.65;;;36.60;36.90;;;;;;5053045;28;20029;-13
2022/05/22 10:34:04;;;;;;;9.25;6.43;;;36.90;36.90;;;;;;5056183;28;20477;-13
2022/05/22 10:36:44;;;;;;;10.18;6.18;;;37.20;36.70;;;;;;5056056;28;20033;-14
2022/05/22 10:39:12;;;;;;;9.77;6.45;;;37.40;35.80;;;;;;5056674;28;20033;-13
2022/05/22 10:44:33;;;;;;;9.50;6.28;;;37.70;35.40;;;;;;5055938;28;20055;-13
2022/05/22 10:47:02;;;;;;;12.38;8.13;;;37.90;33.60;;;;;;5055976;28;20017;-13
2022/05/22 10:49:41;;;;;;;11.90;6.28;;;37.90;33.90;;;;;;5055946;28;20028;-13
2022/05/22 10:52:10;;;;;;;8.63;6.35;;;37.60;34.50;;;;;;5055784;28;20049;-14
2022/05/22 10:54:47;;;;;;;11.30;7.63;;;37.50;35.30;;;;;;5055637;28;20490;-13
2022/05/22 10:57:17;;;;;;;8.10;7.30;;;37.50;35.60;;;;;;5056232;28;20032;-14
2022/05/22 10:59:45;;;;;;;7.70;6.13;;;37.50;35.90;;;;;;5056019;28;20462;-13
2022/05/22 11:02:19;;;;;;;11.15;6.55;;;37.80;35.30;;;;;;5055730;28;20063;-13
2022/05/22 11:04:46;;;;;;;8.88;6.22;;;38.00;35.10;;;;;;5056791;28;20098;-14
2022/05/22 11:07:14;;;;;;;8.57;7.00;;;38.20;34.20;;;;;;5038000;28;20566;-14
2022/05/22 11:09:47;;;;;;;9.63;6.45;;;38.20;34.60;;;;;;5055529;28;20036;-13
2022/05/22 11:12:20;;;;;;;6.47;5.50;;;38.30;34.70;;;;;;5055542;28;20489;-14
2022/05/22 11:14:45;;;;;;;;;;;38.60;34.20;;;;;;5038948;28;20029;-14
2022/05/22 11:17:16;;;;;;;9.90;6.25;;;38.70;33.70;;;;;;5055741;28;19919;-14
2022/05/22 11:19:45;;;;;;;8.00;5.90;;;38.90;34.10;;;;;;5055665;28;20028;-13
2022/05/22 11:22:34;;;;;;;6.57;5.57;;;39.00;33.80;;;;;;5055320;28;20381;-13
2022/05/22 11:25:10;;;;;;;9.52;6.57;;;38.90;33.00;;;;;;5055199;28;20104;-14
2022/05/22 11:27:57;;;;;;;11.38;7.22;;;38.30;33.20;;;;;;5055575;28;20079;-14
2022/05/22 11:30:47;;;;;;;8.55;6.65;;;37.60;33.70;;;;;;5055413;28;20376;-14
2022/05/22 11:33:32;;;;;;;7.80;5.85;;;37.00;34.40;;;;;;5055469;28;20087;-14
2022/05/22 11:36:14;;;;;;;8.38;5.95;;;36.90;34.90;;;;;;5055153;28;20048;-14
2022/05/22 11:39:09;;;;;;;9.00;6.35;;;36.80;35.00;;;;;;5054975;28;20064;-14
2022/05/22 11:41:41;;;;;;;9.43;5.60;;;37.10;33.00;;;;;;5055261;28;20032;-14
2022/05/22 11:44:36;;;;;;;10.35;6.45;;;37.50;34.50;;;;;;5054238;28;20098;-14
2022/05/22 11:47:10;;;;;;;9.90;6.22;;;37.90;33.80;;;;;;5055310;28;20370;-14
2022/05/22 11:49:38;;;;;;;8.57;5.78;;;37.90;34.10;;;;;;5054834;28;20033;-14
2022/05/22 11:52:55;;;;;;;8.38;6.10;;;37.90;33.80;;;;;;5054699;28;20033;-14
2022/05/22 11:55:33;;;;;;;7.40;6.13;;;37.70;33.50;;;;;;5054706;28;20025;-13
2022/05/22 11:58:36;;;;;;;9.27;6.63;;;37.60;34.70;;;;;;5054621;28;20079;-14
2022/05/22 12:01:19;;;;;;;9.23;5.85;;;37.70;34.10;;;;;;5054651;28;20025;-13
2022/05/22 12:04:17;;;;;;;7.10;5.93;;;37.80;34.80;;;;;;5054591;28;20033;-14
2022/05/22 12:07:21;;;;;;;6.32;5.25;;;38.10;33.60;;;;;;5054511;28;20446;-13
2022/05/22 12:10:12;;;;;;;6.72;5.60;;;38.40;33.50;;;;;;4973677;28;20023;-13
2022/05/22 12:12:56;;;;;;;11.57;6.07;;;38.90;33.30;;;;;;4973702;28;20047;-13
2022/05/22 12:15:35;;;;;;;6.80;5.40;;;39.20;32.50;;;;;;4973632;28;20161;-13
2022/05/22 12:18:01;;;;;;;8.82;6.25;;;39.60;32.00;;;;;;4973567;28;20061;-14
2022/05/22 12:21:05;;;;;;;6.50;5.47;;;40.00;31.90;;;;;;4973362;28;20084;-14
2022/05/22 12:23:50;;;;;;;7.72;5.40;;;40.40;31.70;;;;;;4915711;29;20040;-13
2022/05/22 12:26:16;;;;;;;11.18;6.18;;;40.60;31.40;;;;;;4915729;29;20050;-14
2022/05/22 12:28:59;;;;;;;11.68;6.63;;;40.50;31.50;;;;;;4915985;29;20036;-13
2022/05/22 12:31:28;;;;;;;8.70;5.88;;;40.10;30.80;;;;;;4916291;29;20036;-13
2022/05/22 12:34:01;;;;;;;6.47;5.47;;;39.60;31.50;;;;;;4916104;29;20036;-14
2022/05/22 12:36:30;;;;;;;8.60;6.20;;;39.50;31.80;;;;;;4915515;29;20505;-13
2022/05/22 12:39:10;;;;;;;7.30;5.30;;;39.80;30.30;;;;;;4915654;29;20024;-14
2022/05/22 12:41:44;;;;;;;9.65;5.47;;;39.90;31.00;;;;;;4915699;29;20046;-14
2022/05/22 12:44:12;;;;;;;8.60;5.75;;;40.20;30.80;;;;;;4941403;29;20063;-14
2022/05/22 12:46:39;;;;;;;6.63;5.63;;;40.20;29.80;;;;;;4953489;29;20114;-14
2022/05/22 12:49:16;;;;;;;9.20;5.93;;;39.90;30.00;;;;;;4953765;29;20027;-14
2022/05/22 12:51:44;;;;;;;8.20;5.80;;;39.40;30.40;;;;;;4953713;29;20061;-13
2022/05/22 12:54:24;;;;;;;10.93;5.93;;;39.30;30.30;;;;;;4953730;29;20055;-13
2022/05/22 12:56:51;;;;;;;9.15;5.88;;;38.80;30.90;;;;;;4953499;29;20045;-14
2022/05/22 12:59:27;;;;;;;10.07;6.35;;;38.00;31.70;;;;;;4960915;28;20037;-14
2022/05/22 13:01:59;;;;;;;9.52;6.60;;;37.10;32.90;;;;;;5053499;28;20384;-14
2022/05/22 13:04:34;;;;;;;7.72;5.50;;;36.00;34.20;;;;;;5053388;28;20037;-14
2022/05/22 13:07:03;;;;;;;9.32;6.25;;;35.40;35.30;;;;;;5053793;28;20032;-14